.
WxDataArchive / Data Records for 2007-08-25
2007-08-24 August 2007 2007-08-26

Data Records for Saturday, 25 August 2007

Time	Temp	Chill	HIndex	Humid	Dewpt	 Wind 	HiWind	WindDir	Rain 	Barom 
-----	----	-----	------	-----	-----	------	------	-------	-----	----- 
00:00	71.5	71.5	71.5	98	70.9	1	4	248	0.01	29.801 
00:05	71.3	71.3	71.3	97	70.4	1	4	248	0.00	29.791 
00:10	71.3	71.3	71.3	97	70.4	0	1	248	0.00	29.787 
00:15	71.1	71.1	71.1	97	70.2	0	1	248	0.00	29.785 
00:20	71.1	71.1	71.1	97	70.2	0	1	248	0.00	29.774 
00:25	71.1	71.1	71.1	97	70.2	0	1	248	0.00	29.775 
00:30	70.9	70.9	70.9	97	70.0	0	0	---	0.00	29.773 
00:35	70.9	70.9	70.9	97	70.0	0	1	248	0.00	29.772 
00:40	70.9	70.9	70.9	97	70.0	0	1	248	0.01	29.773 
00:45	70.8	70.8	70.8	97	69.9	0	1	248	0.00	29.776 
00:50	70.8	70.8	70.8	97	69.9	0	2	248	0.01	29.783 
00:55	70.8	70.8	70.8	97	69.9	0	1	248	0.01	29.775 
01:00	70.8	70.8	70.8	97	69.9	1	3	248	0.00	29.778 
01:05	70.8	70.8	70.8	97	69.9	1	4	248	0.00	29.779 
01:10	70.8	70.8	70.8	97	69.9	1	4	270	0.01	29.774 
01:15	70.8	70.8	70.8	97	69.9	1	3	248	0.00	29.772 
01:20	70.8	70.8	70.8	97	69.9	0	2	248	0.00	29.759 
01:25	70.8	70.8	70.8	97	69.9	0	1	248	0.00	29.757 
01:30	70.8	70.8	70.8	97	69.9	0	0	---	0.00	29.752 
01:35	70.8	70.8	70.8	97	69.9	0	0	---	0.00	29.747 
01:40	70.8	70.8	70.8	97	69.9	0	0	---	0.00	29.740 
01:45	70.8	70.8	70.8	97	69.9	0	0	---	0.00	29.729 
01:50	70.8	70.8	70.8	97	69.9	0	0	---	0.00	29.726 
01:55	70.8	70.8	70.8	97	69.9	0	0	---	0.00	29.740 
02:00	70.9	70.9	70.9	97	70.0	0	1	248	0.00	29.741 
02:05	70.9	70.9	70.9	97	70.0	0	1	248	0.00	29.743 
02:10	71.1	71.1	71.1	97	70.2	0	1	248	0.00	29.745 
02:15	71.1	71.1	71.1	97	70.2	0	1	248	0.00	29.746 
02:20	71.1	71.1	71.1	97	70.2	0	1	248	0.00	29.748 
02:25	71.1	71.1	71.1	97	70.2	0	1	248	0.00	29.748 
02:30	71.1	71.1	71.1	97	70.2	0	1	248	0.00	29.748 
02:35	70.9	70.9	70.9	97	70.0	0	1	248	0.00	29.748 
02:40	70.9	70.9	70.9	97	70.0	0	1	248	0.00	29.754 
02:45	70.9	70.9	70.9	97	70.0	0	1	248	0.00	29.755 
02:50	70.9	70.9	70.9	97	70.0	0	1	248	0.00	29.757 
02:55	70.8	70.8	70.8	97	69.9	0	2	248	0.00	29.757 
03:00	70.8	70.8	70.8	97	69.9	0	2	248	0.00	29.756 
03:05	70.6	70.6	70.6	97	69.7	0	1	248	0.01	29.747 
03:10	70.4	70.4	70.4	97	69.5	0	2	248	0.00	29.753 
03:15	70.3	70.3	70.3	97	69.4	0	2	248	0.00	29.754 
03:20	70.3	70.3	70.3	97	69.4	1	2	248	0.00	29.754 
03:25	70.1	70.1	70.1	97	69.2	0	1	248	0.01	29.749 
03:30	70.1	70.1	70.1	97	69.2	0	2	248	0.00	29.746 
03:35	69.9	69.9	69.9	97	69.0	0	2	248	0.00	29.744 
03:40	69.9	69.9	69.9	97	69.0	0	1	248	0.00	29.743 
03:45	69.8	69.8	69.8	97	68.9	0	1	248	0.00	29.743 
03:50	69.8	69.8	69.8	97	68.9	0	1	248	0.00	29.744 
03:55	69.8	69.8	69.8	97	68.9	0	1	248	0.00	29.743 
04:00	69.6	69.6	69.6	97	68.7	0	1	248	0.00	29.745 
04:05	69.6	69.6	69.6	97	68.7	0	2	248	0.00	29.753 
04:10	69.6	69.6	69.6	97	68.7	0	1	248	0.00	29.755 
04:15	69.4	69.4	69.4	97	68.5	0	1	248	0.00	29.758 
04:20	69.3	69.3	69.3	97	68.4	0	1	248	0.00	29.758 
04:25	69.3	69.3	69.3	97	68.4	0	1	248	0.00	29.759 
04:30	69.3	69.3	69.3	97	68.4	0	1	248	0.00	29.761 
04:35	69.3	69.3	69.3	97	68.4	0	1	248	0.00	29.763 
04:40	69.3	69.3	69.3	97	68.4	0	2	248	0.00	29.763 
04:45	69.3	69.3	69.3	97	68.4	0	1	248	0.00	29.764 
04:50	69.3	69.3	69.3	97	68.4	0	1	248	0.00	29.769 
04:55	69.3	69.3	69.3	97	68.4	0	1	248	0.00	29.772 
05:00	69.3	69.3	69.3	97	68.4	0	1	248	0.00	29.774 
05:05	69.3	69.3	69.3	97	68.4	0	1	248	0.00	29.783 
05:10	69.3	69.3	69.3	97	68.4	0	1	248	0.00	29.782 
05:15	69.3	69.3	69.3	97	68.4	0	1	248	0.00	29.784 
05:20	69.3	69.3	69.3	97	68.4	0	1	248	0.00	29.784 
05:25	69.3	69.3	69.3	97	68.4	0	2	248	0.00	29.781 
05:30	69.3	69.3	69.3	97	68.4	0	1	248	0.00	29.784 
05:35	69.3	69.3	69.3	97	68.4	0	1	248	0.00	29.786 
05:40	69.3	69.3	69.3	97	68.4	0	0	---	0.00	29.786 
05:45	69.3	69.3	69.3	97	68.4	0	0	---	0.00	29.785 
05:50	69.3	69.3	69.3	97	68.4	0	0	---	0.00	29.789 
05:55	69.4	69.4	69.4	97	68.5	0	1	248	0.00	29.797 
06:00	69.4	69.4	69.4	97	68.5	0	0	---	0.00	29.798 
06:05	69.4	69.4	69.4	97	68.5	0	1	248	0.00	29.799 
06:10	69.6	69.6	69.6	97	68.7	0	1	248	0.00	29.802 
06:15	69.6	69.6	69.6	97	68.7	0	1	248	0.00	29.801 
06:20	69.6	69.6	69.6	97	68.7	0	1	248	0.00	29.804 
06:25	69.6	69.6	69.6	97	68.7	0	2	248	0.00	29.805 
06:30	69.8	69.8	69.8	97	68.9	0	1	248	0.00	29.807 
06:35	69.8	69.8	69.8	97	68.9	0	1	248	0.00	29.811 
06:40	69.8	69.8	69.8	97	68.9	0	1	248	0.00	29.811 
06:45	69.8	69.8	69.8	97	68.9	0	1	248	0.00	29.812 
06:50	69.8	69.8	69.8	97	68.9	0	1	248	0.00	29.813 
06:55	69.9	69.9	69.9	97	69.0	0	1	248	0.00	29.814 
07:00	69.9	69.9	69.9	97	69.0	0	2	248	0.00	29.813 
07:05	69.9	69.9	69.9	97	69.0	0	2	248	0.00	29.814 
07:10	70.1	70.1	70.1	97	69.2	0	2	248	0.00	29.816 
07:15	70.3	70.3	70.3	97	69.4	0	1	248	0.00	29.815 
07:20	70.3	70.3	70.3	98	69.7	0	1	248	0.00	29.816 
07:25	70.4	70.4	70.4	97	69.5	0	1	248	0.00	29.816 
07:30	70.4	70.4	70.4	97	69.5	0	2	248	0.00	29.819 
07:35	70.6	70.6	70.6	97	69.7	0	2	248	0.00	29.817 
07:40	70.6	70.6	70.6	97	69.7	0	2	248	0.00	29.816 
07:45	70.4	70.4	70.4	97	69.5	0	2	270	0.00	29.817 
07:50	70.4	70.4	70.4	97	69.5	0	2	270	0.00	29.816 
07:55	70.4	70.4	70.4	97	69.5	0	2	270	0.00	29.814 
08:00	70.6	70.6	70.6	97	69.7	0	1	270	0.00	29.812 
08:05	70.6	70.6	70.6	97	69.7	1	2	270	0.00	29.812 
08:10	70.8	70.8	70.8	97	69.9	0	2	270	0.00	29.811 
08:15	70.8	70.8	70.8	97	69.9	0	2	270	0.00	29.809 
08:20	70.8	70.8	70.8	97	69.9	1	3	270	0.00	29.813 
08:25	70.8	70.8	70.8	97	69.9	1	2	315	0.00	29.811 
08:30	70.8	70.8	70.8	97	69.9	1	2	315	0.00	29.802 
08:35	70.8	70.8	70.8	96	69.6	0	1	315	0.00	29.804 
08:40	70.9	70.9	70.9	96	69.7	0	2	315	0.00	29.801 
08:45	70.9	70.9	70.9	96	69.7	0	1	315	0.00	29.799 
08:50	71.1	71.1	71.1	96	69.9	0	1	315	0.00	29.804 
08:55	71.5	71.5	71.5	96	70.3	0	1	315	0.00	29.808 
09:00	71.5	71.5	71.5	96	70.3	0	2	270	0.00	29.811 
09:05	71.5	71.5	71.5	96	70.3	0	2	270	0.00	29.813 
09:10	71.5	71.5	71.5	95	70.0	1	3	270	0.00	29.817 
09:15	71.5	71.5	71.5	95	70.0	1	3	248	0.01	29.817 
09:20	71.5	71.5	71.5	95	70.0	0	2	248	0.00	29.816 
09:25	71.6	71.6	71.6	96	70.4	0	2	248	0.00	29.814 
09:30	71.5	71.5	71.5	95	70.0	0	3	248	0.00	29.814 
09:35	71.6	71.6	71.6	96	70.4	0	1	270	0.01	29.816 
09:40	71.8	71.8	71.8	96	70.6	0	1	270	0.00	29.815 
09:45	72.0	72.0	72.0	96	70.8	0	2	270	0.00	29.817 
09:50	72.1	72.1	72.1	96	70.9	1	3	270	0.00	29.818 
09:55	72.3	72.3	72.3	96	71.1	1	3	270	0.00	29.818 
10:00	72.7	72.7	72.7	95	71.2	0	2	248	0.00	29.817 
10:05	72.7	72.7	72.7	94	70.9	1	2	270	0.00	29.818 
10:10	72.8	72.8	72.8	93	70.7	1	3	270	0.00	29.816 
10:15	72.8	72.8	72.8	92	70.3	1	3	270	0.00	29.816 
10:20	72.8	72.8	72.8	90	69.7	1	3	270	0.00	29.817 
10:25	72.8	72.8	72.8	89	69.4	1	3	270	0.00	29.821 
10:30	73.0	73.0	73.0	88	69.2	1	4	270	0.00	29.823 
10:35	73.3	73.3	73.3	87	69.2	2	4	270	0.00	29.825 
10:40	73.5	73.5	73.5	85	68.7	2	5	270	0.00	29.827 
10:45	73.7	73.7	73.7	86	69.2	2	4	270	0.00	29.824 
10:50	73.9	73.9	73.9	85	69.1	1	4	270	0.00	29.825 
10:55	74.0	74.0	74.0	84	68.8	2	4	270	0.00	29.825 
11:00	74.4	74.4	74.4	84	69.2	1	3	248	0.00	29.825 
11:05	74.4	74.4	74.4	82	68.5	2	4	292	0.00	29.822 
11:10	74.4	74.4	74.4	81	68.2	2	4	270	0.00	29.824 
11:15	74.6	74.6	74.6	82	68.7	1	4	270	0.00	29.824 
11:20	74.7	74.7	74.7	81	68.5	1	4	248	0.00	29.827 
11:25	74.9	74.9	74.9	81	68.7	1	2	292	0.00	29.827 
11:30	74.9	74.9	74.9	80	68.3	1	3	270	0.00	29.829 
11:35	74.7	74.7	74.7	80	68.1	1	2	270	0.00	29.829 
11:40	74.9	74.9	74.9	81	68.7	1	2	292	0.00	29.828 
11:45	75.3	75.3	76.0	80	68.7	1	2	248	0.00	29.828 
11:50	75.4	75.4	76.2	79	68.4	1	3	248	0.00	29.829 
11:55	75.4	75.4	76.2	79	68.4	1	4	270	0.00	29.832 
12:00	75.4	75.4	76.1	80	68.8	1	3	292	0.00	29.832 
12:05	75.8	75.8	76.8	79	68.8	1	4	270	0.00	29.831 
12:10	76.0	76.0	77.1	79	69.0	1	3	315	0.00	29.829 
12:15	76.0	76.0	77.1	79	69.0	1	4	270	0.00	29.830 
12:20	76.0	76.0	77.2	77	68.3	1	4	315	0.00	29.829 
12:25	75.6	75.6	76.8	76	67.5	2	4	292	0.00	29.830 
12:30	74.2	74.2	74.2	71	64.2	2	5	292	0.00	29.835 
12:35	73.2	73.2	73.2	75	64.8	1	3	315	0.00	29.835 
12:40	73.0	73.0	73.0	76	65.0	1	3	315	0.00	29.832 
12:45	73.2	73.2	73.2	79	66.3	1	3	315	0.00	29.830 
12:50	73.5	73.5	73.5	78	66.2	0	3	270	0.00	29.833 
12:55	74.2	74.2	74.2	75	65.8	0	4	292	0.00	29.831 
13:00	74.2	74.2	74.2	77	66.5	1	2	315	0.00	29.831 
13:05	73.9	73.9	73.9	76	65.8	1	4	270	0.00	29.832 
13:10	73.7	73.7	73.7	78	66.4	1	2	338	0.00	29.836 
13:15	73.7	73.7	73.7	79	66.8	0	3	45	0.00	29.835 
13:20	73.7	73.7	73.7	78	66.4	0	2	0	0.00	29.835 
13:25	74.0	74.0	74.0	76	65.9	0	2	292	0.00	29.835 
13:30	74.4	74.4	74.4	77	66.7	1	3	315	0.00	29.833 
13:35	74.4	74.4	74.4	76	66.3	1	2	315	0.00	29.832 
13:40	74.4	74.4	74.4	76	66.3	1	2	315	0.00	29.837 
13:45	74.6	74.6	74.6	77	66.9	0	1	315	0.00	29.836 
13:50	74.6	74.6	74.6	73	65.4	0	2	292	0.00	29.836 
13:55	74.4	74.4	74.4	75	65.9	0	2	292	0.00	29.835 
14:00	74.2	74.2	74.2	76	66.1	0	2	22	0.00	29.832 
14:05	74.6	74.6	74.6	75	66.1	0	2	22	0.00	29.831 
14:10	75.4	75.4	76.4	77	67.7	0	1	338	0.00	29.829 
14:15	76.1	76.1	77.5	75	67.6	1	2	338	0.00	29.829 
14:20	76.5	76.5	78.1	72	66.8	0	1	338	0.00	29.827 
14:25	76.7	76.7	78.3	74	67.8	0	1	338	0.00	29.828 
14:30	76.7	76.7	78.4	70	66.2	0	2	338	0.00	29.829 
14:35	77.0	77.0	78.8	71	66.9	0	2	338	0.00	29.828 
14:40	77.2	77.2	79.0	70	66.6	1	2	315	0.00	29.827 
14:45	77.6	77.6	79.5	69	66.6	1	3	315	0.00	29.827 
14:50	77.6	77.6	79.4	66	65.3	1	3	315	0.00	29.827 
14:55	77.0	77.0	78.8	68	65.6	1	4	315	0.00	29.828 
15:00	76.3	76.3	78.1	66	64.1	1	4	315	0.00	29.828 
15:05	76.1	76.1	77.9	67	64.3	0	1	315	0.00	29.830 
15:10	76.1	76.1	77.8	69	65.2	0	2	315	0.00	29.830 
15:15	76.5	76.5	78.2	71	66.4	0	1	315	0.00	29.830 
15:20	76.5	76.5	78.2	70	66.0	0	2	315	0.00	29.830 
15:25	76.5	76.5	78.2	69	65.6	0	1	315	0.00	29.831 
15:30	77.0	77.0	78.8	71	66.9	0	1	315	0.00	29.832 
15:35	77.7	77.7	79.6	66	65.4	1	4	270	0.00	29.831 
15:40	78.3	78.3	80.3	68	66.8	1	4	270	0.00	29.832 
15:45	78.6	78.6	80.6	65	65.8	1	3	45	0.00	29.834 
15:50	78.5	78.5	80.3	62	64.4	1	3	315	0.00	29.835 
15:55	78.1	78.1	79.9	64	64.9	0	2	292	0.00	29.838 
16:00	78.3	78.3	80.2	64	65.1	1	5	270	0.00	29.841 
16:05	78.3	78.3	80.1	63	64.6	1	2	270	0.00	29.843 
16:10	78.1	78.1	79.9	62	64.0	1	5	270	0.00	29.841 
16:15	77.7	77.7	79.5	63	64.1	1	3	292	0.00	29.844 
16:20	77.9	77.9	79.7	65	65.2	0	1	315	0.00	29.842 
16:25	77.9	77.9	79.7	65	65.2	0	2	315	0.00	29.842 
16:30	77.6	77.6	79.4	64	64.4	0	1	315	0.00	29.843 
16:35	77.6	77.6	79.4	63	64.0	1	4	270	0.00	29.843 
16:40	77.6	77.6	79.4	62	63.5	1	3	270	0.00	29.845 
16:45	77.6	77.6	79.4	62	63.5	1	3	0	0.00	29.845 
16:50	77.6	77.6	79.4	62	63.5	1	3	292	0.00	29.844 
16:55	77.4	77.4	79.2	63	63.8	1	2	292	0.00	29.845 
17:00	77.0	77.0	78.8	63	63.4	1	4	292	0.00	29.846 
17:05	76.3	76.3	78.2	64	63.2	1	3	315	0.00	29.848 
17:10	76.0	76.0	77.9	64	62.9	1	4	292	0.00	29.849 
17:15	76.1	76.1	77.9	66	63.9	0	3	292	0.00	29.848 
17:20	76.3	76.3	78.2	64	63.2	0	2	292	0.00	29.848 
17:25	76.3	76.3	78.2	64	63.2	0	2	292	0.00	29.848 
17:30	76.1	76.1	78.0	64	63.0	0	2	292	0.00	29.848 
17:35	76.1	76.1	78.0	64	63.0	0	2	315	0.00	29.849 
17:40	76.1	76.1	78.0	65	63.5	0	1	315	0.00	29.849 
17:45	76.0	76.0	77.9	65	63.4	0	1	292	0.00	29.849 
17:50	75.8	75.8	77.7	64	62.7	0	3	292	0.00	29.849 
17:55	75.6	75.6	77.6	64	62.5	0	1	292	0.00	29.850 
18:00	75.4	75.4	77.4	64	62.4	0	1	292	0.00	29.849 
18:05	75.1	75.1	77.1	66	62.9	0	1	292	0.00	29.851 
18:10	74.9	74.9	74.9	66	62.8	0	0	---	0.00	29.852 
18:15	74.7	74.7	74.7	67	63.0	0	0	---	0.00	29.850 
18:20	74.7	74.7	74.7	68	63.4	0	0	---	0.00	29.849 
18:25	74.7	74.7	74.7	69	63.8	0	0	---	0.00	29.849 
18:30	74.6	74.6	74.6	70	64.2	0	1	292	0.00	29.850 
18:35	74.4	74.4	74.4	71	64.4	0	0	---	0.00	29.851 
18:40	74.2	74.2	74.2	70	63.8	0	0	---	0.00	29.853 
18:45	74.0	74.0	74.0	70	63.6	0	1	292	0.00	29.856 
18:50	74.0	74.0	74.0	71	64.0	0	1	292	0.00	29.858 
18:55	73.9	73.9	73.9	70	63.5	0	0	---	0.00	29.860 
19:00	73.7	73.7	73.7	71	63.7	0	0	---	0.00	29.863 
19:05	73.5	73.5	73.5	71	63.5	0	0	---	0.00	29.865 
19:10	73.3	73.3	73.3	72	63.7	0	1	292	0.00	29.865 
19:15	73.2	73.2	73.2	73	64.0	0	0	---	0.00	29.865 
19:20	72.8	72.8	72.8	73	63.6	0	0	---	0.00	29.866 
19:25	72.5	72.5	72.5	74	63.7	0	0	---	0.00	29.871 
19:30	72.3	72.3	72.3	75	63.9	0	0	---	0.00	29.879 
19:35	72.0	72.0	72.0	76	64.0	0	0	---	0.00	29.878 
19:40	71.6	71.6	71.6	76	63.6	0	0	---	0.00	29.879 
19:45	71.5	71.5	71.5	77	63.9	0	0	---	0.00	29.880 
19:50	71.1	71.1	71.1	77	63.5	0	0	---	0.00	29.883 
19:55	70.9	70.9	70.9	78	63.7	0	0	---	0.00	29.883 
20:00	70.9	70.9	70.9	78	63.7	0	0	---	0.00	29.887 
20:05	70.9	70.9	70.9	79	64.1	0	0	---	0.00	29.889 
20:10	70.8	70.8	70.8	79	64.0	0	0	---	0.00	29.895 
20:15	70.6	70.6	70.6	80	64.1	0	0	---	0.00	29.896 
20:20	70.4	70.4	70.4	80	63.9	0	0	---	0.00	29.897 
20:25	70.3	70.3	70.3	80	63.8	0	1	292	0.00	29.902 
20:30	70.3	70.3	70.3	80	63.8	0	0	---	0.00	29.904 
20:35	70.1	70.1	70.1	80	63.6	0	0	---	0.00	29.906 
20:40	69.9	69.9	69.9	81	63.8	0	0	---	0.00	29.908 
20:45	69.8	69.8	69.8	81	63.7	0	0	---	0.00	29.907 
20:50	69.6	69.6	69.6	80	63.1	0	1	292	0.00	29.910 
20:55	69.6	69.6	69.6	80	63.1	0	1	292	0.00	29.912 
21:00	69.4	69.4	69.4	79	62.6	0	1	292	0.00	29.910 
21:05	69.4	69.4	69.4	78	62.2	0	1	292	0.00	29.911 
21:10	69.3	69.3	69.3	79	62.5	0	0	---	0.00	29.912 
21:15	69.1	69.1	69.1	79	62.3	0	1	292	0.00	29.913 
21:20	68.9	68.9	68.9	78	61.7	0	1	292	0.00	29.914 
21:25	68.8	68.8	68.8	78	61.7	0	1	292	0.00	29.916 
21:30	68.6	68.6	68.6	78	61.5	0	1	292	0.00	29.918 
21:35	68.4	68.4	68.4	77	60.9	0	1	292	0.00	29.924 
21:40	68.4	68.4	68.4	77	60.9	0	1	292	0.00	29.927 
21:45	68.3	68.3	68.3	77	60.8	0	1	315	0.00	29.929 
21:50	68.1	68.1	68.1	77	60.6	0	1	315	0.00	29.929 
21:55	67.9	67.9	67.9	78	60.8	0	1	315	0.00	29.930 
22:00	67.8	67.8	67.8	78	60.7	0	1	315	0.00	29.929 
22:05	67.6	67.6	67.6	79	60.8	0	2	315	0.00	29.928 
22:10	67.4	67.4	67.4	79	60.7	0	1	315	0.00	29.930 
22:15	67.3	67.3	67.3	79	60.6	0	1	315	0.00	29.931 
22:20	67.1	67.1	67.1	79	60.4	0	1	315	0.00	29.933 
22:25	67.1	67.1	67.1	79	60.4	0	1	315	0.00	29.935 
22:30	66.8	66.8	66.8	79	60.1	0	1	315	0.00	29.936 
22:35	66.6	66.6	66.6	80	60.2	0	1	315	0.00	29.936 
22:40	66.4	66.4	66.4	80	60.0	0	1	315	0.00	29.940 
22:45	66.3	66.3	66.3	80	59.9	0	0	---	0.00	29.942 
22:50	66.0	66.0	66.0	81	60.0	0	1	315	0.00	29.942 
22:55	65.8	65.8	65.8	81	59.8	0	0	---	0.00	29.943 
23:00	65.5	65.5	65.5	82	59.9	0	0	---	0.00	29.945 
23:05	65.3	65.3	65.3	83	60.0	0	0	---	0.00	29.946 
23:10	65.0	65.0	65.0	83	59.7	0	0	---	0.00	29.945 
23:15	64.8	64.8	64.8	84	59.8	0	0	---	0.00	29.946 
23:20	64.5	64.5	64.5	85	59.9	0	0	---	0.00	29.946 
23:25	64.3	64.3	64.3	85	59.7	0	0	---	0.00	29.947 
23:30	64.2	64.2	64.2	86	59.9	0	0	---	0.00	29.946 
23:35	64.2	64.2	64.2	87	60.2	0	0	---	0.00	29.947 
23:40	63.9	63.9	63.9	87	59.9	0	0	---	0.00	29.948 
23:45	63.7	63.7	63.7	88	60.1	0	0	---	0.00	29.948 
23:50	63.7	63.7	63.7	88	60.1	0	0	---	0.00	29.949 
23:55	63.5	63.5	63.5	88	59.9	0	0	---	0.00	29.949 

CoCoRaHS
IN-AL-39
A2 Web Hosting
Creative Commons License
GoDaddy
Look for:

loaded 2017-10-17 00:36:36 • last modified 2010-11-18 10:43:29
Privacy PolicyDisclaimer
• wx.awcolley.com is powered by PmWiki v.2002016 •
• all content (unless otherwise noted) © 2017 A W Colley